createdAt,value
2022-10-12T00:01:17.382Z,15.65
2022-10-12T00:03:45.781Z,15.80
2022-10-12T00:06:17.017Z,15.35
2022-10-12T00:08:46.322Z,16.25
2022-10-12T00:11:18.541Z,16.58
2022-10-12T00:16:18.757Z,15.23
2022-10-12T00:18:52.385Z,16.40
2022-10-12T00:21:21.431Z,16.08
2022-10-12T00:23:51.073Z,15.32
2022-10-12T00:26:22.342Z,15.60
2022-10-12T00:28:57.024Z,16.15
2022-10-12T00:31:26.721Z,16.75
2022-10-12T00:33:55.381Z,16.23
2022-10-12T00:36:26.879Z,16.67
2022-10-12T00:38:57.128Z,15.90
2022-10-12T00:43:58.851Z,16.90
2022-10-12T00:46:34.029Z,18.27
2022-10-12T00:49:11.223Z,16.92
2022-10-12T00:51:42.193Z,17.17
2022-10-12T00:56:45.459Z,16.35
2022-10-12T00:59:20.903Z,17.80
2022-10-12T01:01:49.567Z,18.63
2022-10-12T01:04:18.235Z,17.45
2022-10-12T01:06:46.809Z,19.55
2022-10-12T01:09:15.977Z,18.05
2022-10-12T01:11:44.271Z,19.50
2022-10-12T01:14:14.453Z,17.63
2022-10-12T01:16:52.500Z,17.83
2022-10-12T01:19:57.024Z,17.23
2022-10-12T01:22:26.596Z,17.85
2022-10-12T01:25:09.531Z,16.10
2022-10-12T01:27:47.200Z,16.67
2022-10-12T01:30:23.408Z,16.25
2022-10-12T01:33:04.558Z,15.57
2022-10-12T01:35:43.589Z,15.00
2022-10-12T01:38:27.104Z,15.63
2022-10-12T01:41:00.979Z,15.45
2022-10-12T01:43:36.032Z,15.95
2022-10-12T01:46:29.491Z,15.68
2022-10-12T01:49:00.139Z,16.98
2022-10-12T01:51:36.533Z,16.00
2022-10-12T01:54:13.049Z,15.65
2022-10-12T01:56:48.466Z,16.38
2022-10-12T01:59:22.872Z,16.55
2022-10-12T02:01:59.452Z,16.00
2022-10-12T02:04:36.300Z,15.55
2022-10-12T02:07:10.765Z,18.05
2022-10-12T02:09:40.576Z,16.85
2022-10-12T02:12:13.645Z,15.50
2022-10-12T02:14:46.118Z,16.30
2022-10-12T02:17:20.200Z,16.98
2022-10-12T02:19:52.759Z,17.63
2022-10-12T02:22:22.002Z,17.67
2022-10-12T02:24:54.309Z,17.73
2022-10-12T02:27:25.425Z,17.52
2022-10-12T02:29:54.826Z,16.85
2022-10-12T02:32:31.152Z,18.02
2022-10-12T02:35:06.400Z,17.65
2022-10-12T02:37:40.103Z,18.00
2022-10-12T02:40:14.260Z,19.90
2022-10-12T02:43:09.263Z,18.88
2022-10-12T02:45:39.650Z,18.90
2022-10-12T02:48:12.733Z,20.25
2022-10-12T02:50:41.683Z,19.23
2022-10-12T02:53:10.456Z,19.83
2022-10-12T02:55:39.984Z,20.08
2022-10-12T02:58:08.547Z,20.33
2022-10-12T03:00:37.319Z,19.90
2022-10-12T03:03:05.585Z,21.17
2022-10-12T03:05:35.784Z,19.20
2022-10-12T03:08:04.147Z,19.85
2022-10-12T03:10:32.609Z,20.02
2022-10-12T03:13:01.003Z,21.67
2022-10-12T03:15:30.114Z,20.52
2022-10-12T03:22:20.124Z,22.00
2022-10-12T03:24:48.582Z,22.42
2022-10-12T03:27:17.377Z,22.63
2022-10-12T03:29:45.680Z,22.10
2022-10-12T03:32:16.224Z,21.95
2022-10-12T03:34:44.545Z,22.02
2022-10-12T03:37:13.117Z,22.38
2022-10-12T03:39:42.833Z,22.02
2022-10-12T03:42:11.666Z,22.25
2022-10-12T03:44:39.852Z,24.02
2022-10-12T03:47:08.434Z,23.25
2022-10-12T03:49:36.938Z,34.60
2022-10-12T03:52:05.684Z,30.02
2022-10-12T03:54:34.505Z,31.13
2022-10-12T03:57:04.152Z,27.25
2022-10-12T03:59:32.938Z,25.77
2022-10-12T04:02:02.055Z,24.58
2022-10-12T04:04:31.993Z,24.35
2022-10-12T04:07:03.945Z,25.20
2022-10-12T04:09:33.101Z,24.83
2022-10-12T04:12:01.581Z,24.30
2022-10-12T04:14:31.708Z,25.45
2022-10-12T04:17:00.109Z,24.58
2022-10-12T04:19:28.680Z,24.38
2022-10-12T04:21:57.447Z,25.10
2022-10-12T04:24:25.837Z,24.95
2022-10-12T04:26:54.229Z,24.05
2022-10-12T04:29:22.841Z,24.77
2022-10-12T04:31:52.825Z,26.13
2022-10-12T04:34:21.785Z,24.38
2022-10-12T04:36:50.820Z,24.48
2022-10-12T04:39:19.261Z,24.77
2022-10-12T04:41:47.530Z,25.23
2022-10-12T04:44:16.036Z,26.00
2022-10-12T04:46:44.261Z,25.50
2022-10-12T04:49:14.489Z,26.75
2022-10-12T04:51:42.864Z,26.98
2022-10-12T04:54:11.710Z,27.25
2022-10-12T04:56:42.128Z,27.20
2022-10-12T04:59:14.004Z,24.58
2022-10-12T05:01:42.356Z,25.80
2022-10-12T05:04:11.108Z,25.90
2022-10-12T05:06:40.753Z,25.17
2022-10-12T05:09:13.187Z,26.20
2022-10-12T05:11:44.653Z,26.25
2022-10-12T05:14:13.564Z,26.23
2022-10-12T05:16:41.891Z,26.63
2022-10-12T05:19:10.730Z,25.02
2022-10-12T05:21:40.749Z,25.85
2022-10-12T05:24:09.491Z,25.60
2022-10-12T05:26:37.945Z,25.92
2022-10-12T05:29:06.349Z,28.05
2022-10-12T05:31:35.016Z,30.23
2022-10-12T05:34:03.336Z,27.73
2022-10-12T05:36:32.228Z,27.80
2022-10-12T05:39:01.869Z,26.63
2022-10-12T05:41:30.669Z,26.80
2022-10-12T05:43:58.947Z,26.05
2022-10-12T05:46:27.598Z,27.10
2022-10-12T05:48:55.876Z,29.95
2022-10-12T05:51:28.780Z,33.35
2022-10-12T05:53:57.567Z,31.25
2022-10-12T05:56:27.754Z,29.60
2022-10-12T05:58:56.030Z,28.05
2022-10-12T06:01:24.981Z,28.70
2022-10-12T06:03:54.782Z,28.67
2022-10-12T06:06:24.046Z,28.15
2022-10-12T06:08:52.356Z,28.13
2022-10-12T06:11:21.602Z,32.13
2022-10-12T06:13:51.318Z,32.13
2022-10-12T06:16:19.773Z,28.45
2022-10-12T06:18:48.037Z,30.27
2022-10-12T06:24:05.217Z,28.10
2022-10-12T06:26:33.508Z,28.00
2022-10-12T06:29:03.406Z,28.65
2022-10-12T06:31:32.484Z,26.77
2022-10-12T06:34:01.415Z,26.58
2022-10-12T06:36:29.676Z,24.60
2022-10-12T06:38:58.369Z,23.42
2022-10-12T06:41:26.649Z,26.92
2022-10-12T06:43:55.389Z,30.75
2022-10-12T06:46:25.032Z,32.38
2022-10-12T06:48:55.078Z,31.27
2022-10-12T06:51:23.531Z,28.15
2022-10-12T06:53:52.034Z,28.38
2022-10-12T06:56:20.291Z,28.23
2022-10-12T06:58:48.864Z,26.33
2022-10-12T07:01:17.457Z,26.58
2022-10-12T07:03:47.161Z,24.65
2022-10-12T07:06:15.981Z,27.13
2022-10-12T07:08:44.827Z,25.45
2022-10-12T07:11:15.151Z,26.75
2022-10-12T07:13:43.683Z,27.30
2022-10-12T07:16:12.218Z,26.83
2022-10-12T07:18:41.337Z,27.88
2022-10-12T07:21:11.081Z,28.90
2022-10-12T07:23:45.715Z,28.38
2022-10-12T07:26:15.160Z,28.40
2022-10-12T07:28:43.994Z,26.92
2022-10-12T07:31:12.560Z,26.98
2022-10-12T07:33:41.162Z,24.00
2022-10-12T07:36:19.163Z,25.95
2022-10-12T07:38:49.689Z,30.02
2022-10-12T07:41:18.454Z,30.17
2022-10-12T07:43:47.145Z,28.40
2022-10-12T07:46:15.565Z,24.83
2022-10-12T07:48:49.816Z,23.05
2022-10-12T07:51:20.249Z,23.13
2022-10-12T07:53:48.487Z,24.10
2022-10-12T07:56:17.853Z,23.48
2022-10-12T07:58:50.831Z,23.63
2022-10-12T08:01:21.790Z,24.33
2022-10-12T08:03:51.144Z,22.33
2022-10-12T08:06:23.875Z,23.80
2022-10-12T08:08:52.309Z,23.35
2022-10-12T08:11:22.005Z,23.02
2022-10-12T08:13:50.326Z,22.77
2022-10-12T08:16:21.511Z,22.40
2022-10-12T08:18:50.189Z,23.10
2022-10-12T08:21:20.524Z,22.23
2022-10-12T08:23:48.838Z,22.20
2022-10-12T08:26:17.231Z,23.63
2022-10-12T08:28:46.036Z,23.33
2022-10-12T08:31:16.419Z,22.65
2022-10-12T08:33:45.099Z,22.50
2022-10-12T08:36:14.058Z,21.75
2022-10-12T08:38:45.419Z,29.92
2022-10-12T08:41:29.899Z,24.38
2022-10-12T08:44:10.476Z,22.83
2022-10-12T08:46:39.436Z,24.13
2022-10-12T08:49:14.117Z,24.98
2022-10-12T08:51:49.904Z,23.15
2022-10-12T08:54:23.832Z,23.50
2022-10-12T08:56:55.054Z,23.52
2022-10-12T08:59:23.864Z,21.92
2022-10-12T09:02:03.035Z,23.00
2022-10-12T09:04:47.300Z,21.63
2022-10-12T09:07:19.907Z,24.05
2022-10-12T09:10:03.633Z,26.00
2022-10-12T09:12:45.242Z,23.27
2022-10-12T09:15:17.157Z,24.02
2022-10-12T09:17:48.576Z,23.13
2022-10-12T09:20:22.218Z,21.83
2022-10-12T09:22:52.765Z,20.73
2022-10-12T09:27:53.438Z,19.20
2022-10-12T09:30:22.112Z,23.13
2022-10-12T09:33:06.056Z,23.13
2022-10-12T09:35:34.841Z,22.20
2022-10-12T09:38:03.644Z,19.77
2022-10-12T09:40:33.986Z,22.58
2022-10-12T09:43:04.201Z,22.08
2022-10-12T09:45:35.884Z,20.92
2022-10-12T09:48:21.226Z,22.90
2022-10-12T09:50:52.991Z,20.70
2022-10-12T09:53:28.334Z,20.15
2022-10-12T09:56:05.108Z,20.25
2022-10-12T09:58:41.141Z,20.00
2022-10-12T10:01:19.576Z,20.00
2022-10-12T10:03:51.899Z,20.05
2022-10-12T10:06:26.550Z,19.13
2022-10-12T10:08:56.581Z,21.60
2022-10-12T10:11:30.944Z,24.77
2022-10-12T10:14:01.006Z,26.67
2022-10-12T10:16:31.472Z,24.10
2022-10-12T10:19:02.981Z,23.35
2022-10-12T10:21:34.627Z,19.60
2022-10-12T10:24:05.633Z,19.67
2022-10-12T10:26:54.616Z,19.23
2022-10-12T10:29:40.740Z,18.48
2022-10-12T10:32:26.755Z,22.23
2022-10-12T10:35:07.251Z,21.10
2022-10-12T10:37:36.857Z,20.00
2022-10-12T10:40:06.924Z,19.07
2022-10-12T10:42:38.065Z,20.35
2022-10-12T10:45:09.610Z,18.80
2022-10-12T10:47:46.489Z,17.60
2022-10-12T10:50:26.961Z,17.75
2022-10-12T10:52:58.019Z,46.22
2022-10-12T10:55:32.484Z,29.02
2022-10-12T10:58:05.128Z,22.63
2022-10-12T11:00:39.756Z,18.00
2022-10-12T11:03:17.267Z,21.02
2022-10-12T11:05:50.678Z,17.52
2022-10-12T11:08:23.389Z,16.55
2022-10-12T11:10:59.368Z,19.35
2022-10-12T11:13:33.347Z,16.55
2022-10-12T11:16:05.790Z,16.98
2022-10-12T11:18:40.295Z,17.50
2022-10-12T11:21:13.651Z,17.20
2022-10-12T11:23:46.888Z,16.92
2022-10-12T11:26:23.926Z,17.42
2022-10-12T11:28:55.952Z,17.55
2022-10-12T11:31:27.686Z,15.90
2022-10-12T11:34:00.627Z,28.02
2022-10-12T11:36:32.115Z,22.02
2022-10-12T11:39:06.846Z,16.55
2022-10-12T11:42:03.067Z,16.05
2022-10-12T11:44:42.180Z,16.30
2022-10-12T11:47:16.786Z,16.88
2022-10-12T11:49:52.401Z,17.08
2022-10-12T11:52:26.313Z,17.48
2022-10-12T11:55:06.167Z,16.15
2022-10-12T11:57:38.682Z,16.73
2022-10-12T12:00:19.549Z,14.88
2022-10-12T12:02:53.436Z,15.18
2022-10-12T12:05:22.281Z,15.48
2022-10-12T12:07:53.860Z,16.23
2022-10-12T12:10:46.523Z,13.85
2022-10-12T12:13:33.345Z,16.15
2022-10-12T12:16:27.542Z,15.25
2022-10-12T12:19:16.410Z,16.15
2022-10-12T12:22:17.040Z,15.43
2022-10-12T12:24:58.861Z,17.42
2022-10-12T12:27:37.449Z,14.90
2022-10-12T12:30:21.560Z,18.27
2022-10-12T12:32:53.743Z,15.18
2022-10-12T12:35:27.915Z,13.55
2022-10-12T12:38:09.444Z,15.65
2022-10-12T12:40:39.110Z,15.10
2022-10-12T12:43:21.314Z,14.52
2022-10-12T12:45:58.801Z,13.32
2022-10-12T12:49:25.144Z,15.57
2022-10-12T12:51:59.205Z,14.52
2022-10-12T12:54:28.909Z,14.23
2022-10-12T12:57:29.476Z,15.02
2022-10-12T13:00:21.343Z,13.48
2022-10-12T13:03:29.312Z,13.65
2022-10-12T13:06:39.158Z,13.50
2022-10-12T13:09:41.080Z,13.77
2022-10-12T13:12:34.582Z,13.70
2022-10-12T13:15:22.293Z,13.85
2022-10-12T13:18:45.286Z,14.60
2022-10-12T13:21:16.927Z,26.17
2022-10-12T13:23:50.261Z,26.17
2022-10-12T13:26:23.653Z,20.50
2022-10-12T13:28:53.349Z,15.27
2022-10-12T13:31:27.290Z,15.45
2022-10-12T13:34:02.455Z,18.75
2022-10-12T13:36:33.462Z,18.88
2022-10-12T13:39:16.057Z,17.00
2022-10-12T13:41:46.237Z,16.58
2022-10-12T13:44:23.893Z,24.23
2022-10-12T13:46:56.481Z,16.25
2022-10-12T13:49:26.998Z,14.18
2022-10-12T13:51:58.129Z,14.27
2022-10-12T13:57:01.047Z,13.60
2022-10-12T13:59:34.391Z,20.23
2022-10-12T14:02:04.305Z,15.80
2022-10-12T14:04:35.142Z,13.30
2022-10-12T14:07:07.779Z,13.43
2022-10-12T14:09:44.602Z,12.80
2022-10-12T14:12:14.635Z,13.07
2022-10-12T14:14:46.208Z,15.13
2022-10-12T14:17:16.685Z,12.70
2022-10-12T14:19:47.956Z,13.75
2022-10-12T14:22:24.292Z,15.02
2022-10-12T14:25:11.180Z,14.63
2022-10-12T14:27:41.486Z,12.98
2022-10-12T14:30:21.313Z,14.18
2022-10-12T14:32:55.032Z,14.40
2022-10-12T14:35:30.347Z,13.95
2022-10-12T14:37:59.607Z,13.70
2022-10-12T14:40:38.519Z,14.25
2022-10-12T14:43:21.327Z,13.63
2022-10-12T14:45:50.932Z,15.35
2022-10-12T14:48:23.752Z,20.63
2022-10-12T14:50:52.588Z,26.17
2022-10-12T14:53:22.439Z,17.90
2022-10-12T14:55:54.614Z,16.93
2022-10-12T14:58:23.415Z,15.15
2022-10-12T15:00:52.026Z,15.95
2022-10-12T15:03:20.420Z,16.02
2022-10-12T15:05:49.329Z,16.83
2022-10-12T15:08:17.605Z,21.35
2022-10-12T15:10:50.831Z,18.55
2022-10-12T15:13:20.477Z,20.10
2022-10-12T15:15:50.718Z,17.15
2022-10-12T15:18:19.065Z,16.55
2022-10-12T15:20:49.712Z,18.40
2022-10-12T15:23:18.554Z,17.85
2022-10-12T15:25:51.820Z,17.17
2022-10-12T15:28:21.888Z,17.35
2022-10-12T15:33:40.020Z,17.58
2022-10-12T15:36:08.738Z,18.52
2022-10-12T15:38:37.623Z,17.40
2022-10-12T15:41:06.588Z,19.80
2022-10-12T15:43:38.248Z,19.80
2022-10-12T15:46:12.126Z,20.92
2022-10-12T15:48:40.681Z,20.48
2022-10-12T15:51:17.988Z,21.90
2022-10-12T15:53:46.952Z,21.58
2022-10-12T15:56:17.161Z,22.30
2022-10-12T15:58:47.286Z,22.63
2022-10-12T16:01:17.708Z,21.38
2022-10-12T16:06:15.229Z,21.88
2022-10-12T16:08:44.435Z,21.38
2022-10-12T16:11:15.359Z,20.95
2022-10-12T16:13:51.068Z,22.08
2022-10-12T16:16:23.919Z,20.83
2022-10-12T16:18:54.238Z,21.30
2022-10-12T16:21:22.735Z,20.10
2022-10-12T16:23:51.332Z,20.98
2022-10-12T16:26:19.816Z,22.00
2022-10-12T16:28:48.783Z,21.80
2022-10-12T16:31:18.264Z,21.65
2022-10-12T16:33:48.367Z,22.50
2022-10-12T16:36:17.822Z,20.70
2022-10-12T16:38:46.903Z,21.37
2022-10-12T16:41:17.284Z,20.38
2022-10-12T16:46:16.363Z,20.05
2022-10-12T16:48:45.027Z,20.60
2022-10-12T16:51:15.647Z,19.85
2022-10-12T16:56:12.851Z,19.70
2022-10-12T16:58:41.327Z,18.98
2022-10-12T17:01:13.361Z,18.50
2022-10-12T17:03:43.309Z,32.92
2022-10-12T17:06:13.993Z,22.25
2022-10-12T17:08:42.557Z,22.38
2022-10-12T17:11:13.456Z,18.88
2022-10-12T17:13:48.093Z,18.75
2022-10-12T17:16:36.250Z,19.73
2022-10-12T17:19:05.066Z,26.58
2022-10-12T17:21:35.006Z,23.45
2022-10-12T17:24:03.918Z,20.05
2022-10-12T17:26:32.175Z,19.35
2022-10-12T17:29:00.438Z,18.17
2022-10-12T17:31:28.675Z,20.80
2022-10-12T17:33:58.498Z,21.48
2022-10-12T17:36:28.543Z,19.85
2022-10-12T17:39:00.353Z,19.15
2022-10-12T17:41:29.898Z,19.08
2022-10-12T17:43:58.778Z,18.60
2022-10-12T17:46:28.065Z,20.13
2022-10-12T17:48:57.008Z,18.92
2022-10-12T17:51:25.463Z,20.05
2022-10-12T17:53:53.825Z,18.45
2022-10-12T17:56:24.032Z,18.70
2022-10-12T17:58:55.421Z,16.83
2022-10-12T18:01:24.607Z,16.85
2022-10-12T18:03:55.377Z,16.85
2022-10-12T18:06:25.641Z,16.17
2022-10-12T18:08:55.067Z,18.45
2022-10-12T18:11:25.776Z,17.80
2022-10-12T18:13:56.773Z,19.60
2022-10-12T18:16:27.643Z,19.02
2022-10-12T18:21:26.584Z,17.70
2022-10-12T18:23:55.118Z,19.05
2022-10-12T18:26:28.011Z,19.40
2022-10-12T18:28:56.592Z,25.55
2022-10-12T18:31:26.975Z,19.70
2022-10-12T18:33:56.416Z,17.90
2022-10-12T18:36:24.790Z,37.15
2022-10-12T18:38:53.317Z,32.53
2022-10-12T18:41:23.481Z,27.45
2022-10-12T18:43:57.836Z,27.42
2022-10-12T18:46:27.829Z,25.25
2022-10-12T18:48:56.620Z,16.45
2022-10-12T18:51:27.449Z,21.55
2022-10-12T18:53:56.485Z,23.02
2022-10-12T18:56:25.698Z,23.38
2022-10-12T18:58:56.108Z,21.70
2022-10-12T19:01:26.073Z,19.38
2022-10-12T19:03:56.415Z,15.82
2022-10-12T19:06:27.398Z,16.20
2022-10-12T19:08:57.522Z,16.90
2022-10-12T19:11:27.208Z,16.35
2022-10-12T19:13:59.118Z,15.82
2022-10-12T19:16:28.011Z,17.27
2022-10-12T19:18:57.835Z,15.52
2022-10-12T19:21:26.678Z,15.98
2022-10-12T19:23:56.066Z,15.95
2022-10-12T19:26:28.299Z,15.23
2022-10-12T19:28:58.807Z,15.75
2022-10-12T19:31:29.131Z,15.75
2022-10-12T19:33:58.019Z,18.63
2022-10-12T19:36:27.698Z,18.55
2022-10-12T19:38:56.444Z,18.03
2022-10-12T19:41:25.689Z,18.70
2022-10-12T19:43:54.753Z,17.02
2022-10-12T19:46:24.956Z,16.70
2022-10-12T19:48:54.989Z,16.85
2022-10-12T19:51:25.402Z,17.55
2022-10-12T19:53:54.438Z,17.17
2022-10-12T19:56:23.217Z,20.55
2022-10-12T19:58:53.191Z,19.77
2022-10-12T20:01:25.610Z,20.05
2022-10-12T20:03:55.362Z,21.75
2022-10-12T20:06:25.833Z,20.23
2022-10-12T20:08:55.510Z,20.15
2022-10-12T20:11:25.131Z,20.67
2022-10-12T20:13:54.656Z,20.52
2022-10-12T20:16:24.582Z,20.88
2022-10-12T20:18:53.939Z,21.33
2022-10-12T20:21:23.788Z,19.45
2022-10-12T20:23:53.392Z,19.20
2022-10-12T20:26:23.288Z,19.30
2022-10-12T20:28:53.272Z,20.58
2022-10-12T20:31:23.530Z,19.25
2022-10-12T20:33:54.109Z,19.25
2022-10-12T20:36:25.412Z,19.13
2022-10-12T20:38:54.273Z,18.83
2022-10-12T20:41:23.687Z,19.50
2022-10-12T20:43:55.856Z,19.00
2022-10-12T20:46:24.725Z,17.40
2022-10-12T20:48:58.951Z,18.52
2022-10-12T20:51:29.900Z,18.27
2022-10-12T20:54:01.203Z,17.77
2022-10-12T20:56:29.715Z,19.05
2022-10-12T20:58:58.972Z,18.98
2022-10-12T21:01:28.301Z,19.35
2022-10-12T21:03:58.548Z,21.02
2022-10-12T21:06:26.900Z,19.75
2022-10-12T21:08:56.559Z,20.08
2022-10-12T21:11:25.711Z,19.90
2022-10-12T21:13:54.148Z,20.52
2022-10-12T21:16:22.455Z,20.95
2022-10-12T21:18:54.488Z,18.45
2022-10-12T21:21:25.217Z,21.00
2022-10-12T21:23:55.637Z,20.50
2022-10-12T21:26:25.471Z,19.50
2022-10-12T21:28:53.907Z,19.27
2022-10-12T21:31:23.428Z,21.15
2022-10-12T21:33:53.699Z,21.17
2022-10-12T21:36:26.364Z,22.55
2022-10-12T21:38:54.917Z,21.15
2022-10-12T21:41:24.586Z,19.15
2022-10-12T21:43:54.489Z,19.73
2022-10-12T21:46:24.557Z,19.00
2022-10-12T21:48:53.676Z,18.50
2022-10-12T21:51:24.955Z,17.83
2022-10-12T21:53:54.060Z,18.38
2022-10-12T21:56:24.263Z,17.52
2022-10-12T21:58:54.767Z,17.60
2022-10-12T22:03:54.910Z,18.08
2022-10-12T22:06:26.757Z,18.17
2022-10-12T22:08:57.147Z,17.75
2022-10-12T22:11:27.163Z,18.05
2022-10-12T22:13:59.682Z,18.27
2022-10-12T22:16:29.451Z,22.05
2022-10-12T22:18:59.246Z,20.85
2022-10-12T22:21:36.216Z,26.55
2022-10-12T22:24:06.029Z,18.45
2022-10-12T22:26:35.199Z,19.80
2022-10-12T22:29:07.388Z,20.42
2022-10-12T22:31:36.744Z,21.52
2022-10-12T22:34:05.461Z,20.52
2022-10-12T22:36:39.690Z,20.20
2022-10-12T22:39:09.665Z,18.20
2022-10-12T22:41:38.725Z,18.23
2022-10-12T22:44:07.620Z,17.85
2022-10-12T22:46:35.922Z,20.92
2022-10-12T22:49:04.857Z,19.48
2022-10-12T22:51:35.016Z,19.60
2022-10-12T22:54:05.449Z,17.45
2022-10-12T22:56:34.004Z,19.30
2022-10-12T22:59:06.701Z,20.40
2022-10-12T23:01:36.762Z,20.67
2022-10-12T23:04:05.808Z,20.10
2022-10-12T23:06:34.156Z,19.65
2022-10-12T23:09:04.710Z,19.00
2022-10-12T23:11:33.042Z,18.85
2022-10-12T23:14:01.771Z,19.80
2022-10-12T23:16:32.883Z,19.73
2022-10-12T23:21:32.615Z,18.75
2022-10-12T23:24:02.017Z,18.65
2022-10-12T23:26:31.959Z,19.38
2022-10-12T23:29:00.716Z,22.17
2022-10-12T23:31:32.612Z,21.83
2022-10-12T23:34:03.511Z,19.52
2022-10-12T23:36:33.451Z,18.98
2022-10-12T23:39:03.765Z,20.58
2022-10-12T23:44:02.151Z,19.85
2022-10-12T23:46:30.848Z,20.88
2022-10-12T23:49:00.486Z,23.92
2022-10-12T23:51:29.120Z,22.85
2022-10-12T23:53:57.315Z,21.98
2022-10-12T23:56:25.637Z,21.45
2022-10-12T23:58:56.053Z,21.90
